Auburndale, Massachusetts
Current Conditions -  °F | °C
As of 3:54 AM on Sunday 26 Oct 2014 (Local Time) from KBOS Reporting Station
Overcast Overcast  
Wind Chill: 55°   Ceiling: 18000
Heat Index: 55°   Visibility: 10mi
Dew Point: 44°   Wind: 14mph
Humidity: 67%   Direction: 250°WSW
Pressure: 29.45"   Gusts: NA
Location:  42.35°N, 70.95°W
Report Text: KBOS 260754Z 25012KT 10SM OVC180 13/07 A2945 RMK AO2 SLP973 T01280067
Loading
Personal Weather Stations






























Interactive Weather Map New forecast layout! Learn more

10-Day Weather Forecast

Advertisements
Track Severe Weather on mobile